Flight Number: EUR1129 Duration: 1:20
Departure: Moscow Sheremetyevo (UUEE) at 18:20 Distance: 473 Nm
Arrival: Helsinki Vantaa (EFHK) at 19:40 Equipment: A321

Weather Information
Moscow / Sheremet'Ye , Russia (UUEE) 55-59N 037-30E Feb 24, 2018 - 12:30 AM EST / 2018.02.24 0530 UTC
Wind: Variable at 2 MPH (2 KT):0
Visibility: 5 mile(s):0 Temperature: 3 F (-16 C) Dew Point: 0 F (-18 C) Relative Humidity: 84% Pressure (altimeter): 30.27 in. Hg (1025 hPa)
ob: UUEE 240530Z VRB01MPS 9000 NSC M16/M18 Q1025 R24R/410340 R24L/410351 NOSIG cycle: 5
Sunrise: 04:37 Sunset: 14:49 (UTC)

Helsinki-Vantaa, Finland (EFHK) 60-19N 024-58E 56M Feb 24, 2018 - 12:50 AM EST / 2018.02.24 0550 UTC
Wind: from the N (360 degrees) at 8 MPH (7 KT):0
Visibility: greater than 7 mile(s):0 Temperature: 0 F (-18 C)
Windchill: -14 F (-26 C):2 Dew Point: -4 F (-20 C) Relative Humidity: 84% Pressure (altimeter): 30.59 in. Hg (1036 hPa)
ob: EFHK 240550Z 36007KT CAVOK M18/M20 Q1036 NOSIG cycle: 6
Sunrise: 05:37 Sunset: 15:29 (UTC)

TAF:2018/02/24 06:42 TAF TAF EFHK 240530Z 2406/2506 36008KT CAVOK

Previous Pireps for this route
Date Aircraft Flight time Fuel used Landing rate On time
2012-11-22A32101.4610554-318Yes
2013-08-15A32101.349686-165No
2013-09-17A32101.4613775-195Yes
2013-10-18A3211.20263100No
2013-12-30B7372.00150000Charter
2014-06-12A32100.2215144-234No
2015-01-08A32102.1312655-58Yes
2015-03-20A32101.3111337-326Yes
2015-09-16A32101.2712944-178No
(pireps marked green are flown by you)

Route map